createdAt,value
2022-08-26T00:01:37.327Z,2.88
2022-08-26T00:04:38.652Z,2.72
2022-08-26T00:07:39.981Z,3.00
2022-08-26T00:10:44.729Z,3.28
2022-08-26T00:13:47.927Z,3.15
2022-08-26T00:16:51.096Z,3.10
2022-08-26T00:19:52.427Z,2.95
2022-08-26T00:22:54.630Z,3.55
2022-08-26T00:25:55.931Z,3.30
2022-08-26T00:28:58.118Z,3.05
2022-08-26T00:31:59.513Z,3.78
2022-08-26T00:35:01.033Z,2.90
2022-08-26T00:38:03.581Z,4.28
2022-08-26T00:41:05.270Z,3.70
2022-08-26T00:44:07.066Z,3.90
2022-08-26T00:47:11.166Z,2.78
2022-08-26T00:50:14.430Z,3.42
2022-08-26T00:53:24.090Z,3.10
2022-08-26T00:56:25.592Z,2.90
2022-08-26T00:59:27.422Z,3.70
2022-08-26T01:02:28.942Z,3.35
2022-08-26T01:05:30.649Z,3.10
2022-08-26T01:08:32.027Z,3.47
2022-08-26T01:11:33.893Z,3.28
2022-08-26T01:14:36.736Z,3.92
2022-08-26T01:17:38.878Z,3.40
2022-08-26T01:20:57.754Z,3.50
2022-08-26T01:23:59.482Z,3.03
2022-08-26T01:27:05.093Z,3.30
2022-08-26T01:30:06.660Z,4.00
2022-08-26T01:33:10.910Z,3.10
2022-08-26T01:36:12.800Z,3.72
2022-08-26T01:39:14.088Z,3.65
2022-08-26T01:42:16.380Z,3.50
2022-08-26T01:45:21.216Z,3.78
2022-08-26T01:48:24.264Z,3.17
2022-08-26T01:51:26.198Z,3.83
2022-08-26T01:54:27.568Z,3.75
2022-08-26T01:57:28.945Z,3.95
2022-08-26T02:00:30.315Z,3.80
2022-08-26T02:03:32.813Z,4.50
2022-08-26T02:06:35.767Z,3.70
2022-08-26T02:09:38.445Z,3.60
2022-08-26T02:12:42.746Z,3.72
2022-08-26T02:15:44.377Z,3.90
2022-08-26T02:18:47.017Z,3.28
2022-08-26T02:21:51.282Z,4.07
2022-08-26T02:24:54.788Z,4.40
2022-08-26T02:27:56.771Z,3.50
2022-08-26T02:30:58.287Z,4.47
2022-08-26T02:34:13.453Z,3.20
2022-08-26T02:37:17.704Z,4.30
2022-08-26T02:40:24.657Z,3.58
2022-08-26T02:43:31.633Z,4.20
2022-08-26T02:46:34.926Z,3.75
2022-08-26T02:49:39.957Z,4.15
2022-08-26T02:52:45.617Z,3.72
2022-08-26T02:55:49.388Z,3.75
2022-08-26T02:58:51.264Z,3.92
2022-08-26T03:01:56.017Z,3.33
2022-08-26T03:05:02.079Z,4.35
2022-08-26T03:08:04.192Z,3.80
2022-08-26T03:11:05.938Z,4.05
2022-08-26T03:14:08.381Z,4.35
2022-08-26T03:17:09.691Z,4.38
2022-08-26T03:20:11.533Z,3.80
2022-08-26T03:23:15.006Z,3.78
2022-08-26T03:26:16.540Z,3.60
2022-08-26T03:29:36.761Z,4.65
2022-08-26T03:32:38.121Z,3.25
2022-08-26T03:35:44.177Z,4.32
2022-08-26T03:38:45.493Z,4.68
2022-08-26T03:41:47.353Z,3.97
2022-08-26T03:44:49.377Z,3.90
2022-08-26T03:47:50.657Z,3.70
2022-08-26T03:50:54.323Z,4.97
2022-08-26T03:53:57.088Z,4.57
2022-08-26T03:56:58.517Z,4.60
2022-08-26T04:00:00.010Z,5.45
2022-08-26T04:03:01.366Z,4.70
2022-08-26T04:06:03.071Z,4.68
2022-08-26T04:09:08.469Z,4.45
2022-08-26T04:12:10.817Z,4.82
2022-08-26T04:15:13.835Z,4.95
2022-08-26T04:18:16.181Z,4.20
2022-08-26T04:21:17.517Z,4.25
2022-08-26T04:24:19.558Z,5.25
2022-08-26T04:27:20.836Z,6.18
2022-08-26T04:30:22.238Z,4.20
2022-08-26T04:33:32.296Z,4.15
2022-08-26T04:36:34.510Z,4.97
2022-08-26T04:39:37.101Z,4.70
2022-08-26T04:42:38.395Z,4.68
2022-08-26T04:45:40.371Z,3.85
2022-08-26T04:48:41.980Z,4.57
2022-08-26T04:51:43.967Z,4.20
2022-08-26T04:54:45.313Z,4.07
2022-08-26T04:57:47.246Z,4.78
2022-08-26T05:00:49.501Z,4.70
2022-08-26T05:03:51.160Z,4.88
2022-08-26T05:06:54.846Z,4.05
2022-08-26T05:09:59.163Z,4.18
2022-08-26T05:13:00.803Z,5.88
2022-08-26T05:16:03.867Z,4.00
2022-08-26T05:19:06.864Z,4.70
2022-08-26T05:22:09.766Z,4.00
2022-08-26T05:25:14.806Z,3.72
2022-08-26T05:28:17.986Z,4.28
2022-08-26T05:31:21.074Z,3.90
2022-08-26T05:34:23.042Z,4.03
2022-08-26T05:37:27.135Z,3.65
2022-08-26T05:40:28.771Z,4.40
2022-08-26T05:43:30.230Z,4.95
2022-08-26T05:46:31.646Z,4.63
2022-08-26T05:49:32.967Z,3.80
2022-08-26T05:52:34.236Z,3.65
2022-08-26T05:55:41.106Z,3.58
2022-08-26T05:58:42.730Z,3.88
2022-08-26T06:01:47.602Z,4.60
2022-08-26T06:04:48.974Z,4.32
2022-08-26T06:08:09.037Z,4.32
2022-08-26T06:11:18.654Z,4.32
2022-08-26T06:14:20.153Z,4.65
2022-08-26T06:17:21.506Z,4.53
2022-08-26T06:20:24.767Z,4.32
2022-08-26T06:23:47.502Z,3.88
2022-08-26T06:26:53.536Z,4.55
2022-08-26T06:29:54.822Z,4.15
2022-08-26T06:32:56.179Z,4.25
2022-08-26T06:35:57.553Z,3.95
2022-08-26T06:39:05.899Z,3.92
2022-08-26T06:42:07.757Z,4.50
2022-08-26T06:45:09.532Z,3.80
2022-08-26T06:48:13.785Z,3.83
2022-08-26T06:51:20.509Z,3.88
2022-08-26T06:54:24.958Z,3.60
2022-08-26T06:57:26.252Z,3.85
2022-08-26T07:00:28.151Z,3.80
2022-08-26T07:03:29.659Z,3.83
2022-08-26T07:06:38.176Z,4.47
2022-08-26T07:09:40.517Z,3.35
2022-08-26T07:12:41.833Z,3.92
2022-08-26T07:15:48.827Z,4.43
2022-08-26T07:18:58.627Z,3.58
2022-08-26T07:22:01.748Z,4.45
2022-08-26T07:25:08.264Z,4.03
2022-08-26T07:28:09.799Z,3.13
2022-08-26T07:31:13.540Z,4.00
2022-08-26T07:34:15.096Z,3.58
2022-08-26T07:37:17.507Z,3.85
2022-08-26T07:40:19.096Z,3.47
2022-08-26T07:43:21.654Z,3.90
2022-08-26T07:46:27.525Z,3.95
2022-08-26T07:49:31.858Z,3.42
2022-08-26T07:52:33.302Z,3.50
2022-08-26T07:55:35.039Z,3.53
2022-08-26T07:58:38.828Z,3.80
2022-08-26T08:01:40.442Z,4.20
2022-08-26T08:04:46.263Z,4.32
2022-08-26T08:07:48.465Z,3.53
2022-08-26T08:10:55.738Z,3.33
2022-08-26T08:13:57.829Z,3.78
2022-08-26T08:16:59.221Z,3.53
2022-08-26T08:20:02.148Z,3.42
2022-08-26T08:23:05.733Z,3.72
2022-08-26T08:26:09.575Z,3.22
2022-08-26T08:29:11.164Z,4.03
2022-08-26T08:32:15.396Z,3.65
2022-08-26T08:35:18.535Z,3.83
2022-08-26T08:38:19.851Z,3.88
2022-08-26T08:41:27.997Z,3.88
2022-08-26T08:44:29.590Z,3.78
2022-08-26T08:47:37.758Z,4.05
2022-08-26T08:50:44.504Z,4.20
2022-08-26T08:53:48.014Z,3.65
2022-08-26T08:56:52.953Z,3.47
2022-08-26T09:00:02.677Z,3.58
2022-08-26T09:03:09.055Z,3.55
2022-08-26T09:06:19.583Z,3.90
2022-08-26T09:09:26.733Z,4.00
2022-08-26T09:12:30.267Z,3.97
2022-08-26T09:15:50.712Z,4.18
2022-08-26T09:19:07.031Z,4.25
2022-08-26T09:22:09.572Z,4.25
2022-08-26T09:25:12.733Z,4.47
2022-08-26T09:28:16.914Z,3.90
2022-08-26T09:31:21.947Z,4.15
2022-08-26T09:34:26.479Z,3.92
2022-08-26T09:40:35.613Z,3.53
2022-08-26T09:43:37.441Z,3.35
2022-08-26T09:46:46.480Z,3.35
2022-08-26T09:49:56.173Z,3.33
2022-08-26T09:53:05.184Z,3.40
2022-08-26T09:56:13.145Z,3.90
2022-08-26T09:59:28.700Z,3.58
2022-08-26T10:02:31.695Z,3.20
2022-08-26T10:05:39.853Z,3.20
2022-08-26T10:08:47.420Z,3.03
2022-08-26T10:11:54.135Z,2.95
2022-08-26T10:14:58.013Z,3.25
2022-08-26T10:18:11.492Z,3.35
2022-08-26T10:21:18.045Z,3.40
2022-08-26T10:24:22.641Z,3.55
2022-08-26T10:27:56.118Z,3.90
2022-08-26T10:31:17.914Z,3.20
2022-08-26T10:34:21.494Z,3.47
2022-08-26T10:37:31.012Z,3.80
2022-08-26T10:40:37.419Z,3.35
2022-08-26T10:43:45.123Z,3.33
2022-08-26T10:46:57.830Z,3.25
2022-08-26T10:50:02.936Z,3.50
2022-08-26T10:53:11.877Z,3.38
2022-08-26T10:56:42.609Z,3.35
2022-08-26T11:00:22.664Z,4.10
2022-08-26T11:03:24.542Z,3.63
2022-08-26T11:06:28.675Z,3.35
2022-08-26T11:09:46.630Z,3.28
2022-08-26T11:12:50.292Z,3.72
2022-08-26T11:15:54.560Z,3.42
2022-08-26T11:18:55.982Z,3.33
2022-08-26T11:22:05.840Z,3.08
2022-08-26T11:28:08.603Z,3.08
2022-08-26T11:31:11.226Z,3.17
2022-08-26T11:34:13.951Z,2.95
2022-08-26T11:37:16.934Z,3.40
2022-08-26T11:40:20.625Z,3.53
2022-08-26T11:43:25.916Z,3.75
2022-08-26T11:46:35.616Z,3.35
2022-08-26T11:49:37.786Z,4.30
2022-08-26T11:52:39.677Z,3.30
2022-08-26T11:55:43.300Z,3.58
2022-08-26T11:58:45.527Z,3.40
2022-08-26T12:01:49.391Z,3.28
2022-08-26T12:04:51.736Z,3.28
2022-08-26T12:07:54.390Z,3.40
2022-08-26T12:11:03.530Z,3.10
2022-08-26T12:17:14.513Z,4.03
2022-08-26T12:20:46.461Z,3.33
2022-08-26T12:23:49.947Z,4.15
2022-08-26T12:27:04.365Z,3.08
2022-08-26T12:30:08.475Z,3.42
2022-08-26T12:33:22.719Z,3.10
2022-08-26T12:36:27.545Z,3.47
2022-08-26T12:39:33.060Z,3.35
2022-08-26T12:42:41.891Z,3.47
2022-08-26T12:45:55.257Z,3.40
2022-08-26T12:49:01.051Z,3.13
2022-08-26T12:52:03.246Z,3.17
2022-08-26T12:55:06.929Z,3.15
2022-08-26T12:58:11.102Z,3.35
2022-08-26T13:01:22.084Z,3.47
2022-08-26T13:04:42.829Z,3.80
2022-08-26T13:07:44.158Z,3.78
2022-08-26T13:10:47.663Z,3.22
2022-08-26T13:13:54.800Z,3.42
2022-08-26T13:17:00.127Z,3.30
2022-08-26T13:20:04.047Z,4.05
2022-08-26T13:23:05.834Z,3.97
2022-08-26T13:26:07.134Z,3.70
2022-08-26T13:29:10.491Z,3.85
2022-08-26T13:32:12.219Z,3.72
2022-08-26T13:38:32.956Z,3.85
2022-08-26T13:41:36.165Z,4.40
2022-08-26T13:44:38.938Z,3.75
2022-08-26T13:47:40.240Z,4.10
2022-08-26T13:50:41.866Z,3.97
2022-08-26T13:53:43.233Z,3.63
2022-08-26T13:56:45.070Z,3.42
2022-08-26T13:59:46.361Z,3.80
2022-08-26T14:02:47.786Z,3.15
2022-08-26T14:05:49.074Z,3.47
2022-08-26T14:08:50.763Z,4.25
2022-08-26T14:11:54.498Z,3.70
2022-08-26T14:14:56.471Z,3.80
2022-08-26T14:17:57.829Z,3.72
2022-08-26T14:20:59.300Z,3.30
2022-08-26T14:24:01.147Z,3.47
2022-08-26T14:27:02.743Z,3.45
2022-08-26T14:30:04.325Z,3.35
2022-08-26T14:33:05.683Z,3.38
2022-08-26T14:36:26.081Z,3.50
2022-08-26T14:39:27.358Z,3.33
2022-08-26T14:42:31.622Z,3.88
2022-08-26T14:45:35.580Z,5.38
2022-08-26T14:48:36.906Z,6.03
2022-08-26T14:51:38.781Z,5.20
2022-08-26T14:54:40.082Z,5.32
2022-08-26T14:57:41.390Z,5.57
2022-08-26T15:00:43.223Z,5.53
2022-08-26T15:03:44.647Z,5.30
2022-08-26T15:06:46.295Z,5.57
2022-08-26T15:09:47.899Z,5.35
2022-08-26T15:12:49.578Z,5.10
2022-08-26T15:15:50.920Z,4.78
2022-08-26T15:18:52.506Z,5.15
2022-08-26T15:21:54.216Z,5.13
2022-08-26T15:24:56.369Z,5.13
2022-08-26T15:27:57.756Z,5.45
2022-08-26T15:31:00.357Z,6.15
2022-08-26T15:34:04.976Z,6.72
2022-08-26T15:37:06.361Z,5.82
2022-08-26T15:40:09.621Z,6.75
2022-08-26T15:43:27.917Z,7.18
2022-08-26T15:46:30.198Z,7.45
2022-08-26T15:49:31.600Z,7.13
2022-08-26T15:52:33.230Z,7.32
2022-08-26T15:55:34.538Z,7.43
2022-08-26T15:58:36.241Z,7.88
2022-08-26T16:01:38.236Z,8.00
2022-08-26T16:04:39.540Z,7.90
2022-08-26T16:07:40.843Z,7.38
2022-08-26T16:10:49.234Z,7.15
2022-08-26T16:13:51.642Z,8.02
2022-08-26T16:16:53.387Z,7.22
2022-08-26T16:19:54.658Z,7.93
2022-08-26T16:22:56.186Z,8.15
2022-08-26T16:25:58.841Z,8.25
2022-08-26T16:29:06.844Z,8.63
2022-08-26T16:32:09.087Z,7.45
2022-08-26T16:35:10.734Z,9.65
2022-08-26T16:38:12.066Z,8.45
2022-08-26T16:41:13.373Z,7.45
2022-08-26T16:44:14.764Z,7.47
2022-08-26T16:47:16.585Z,7.95
2022-08-26T16:50:18.710Z,7.80
2022-08-26T16:53:20.015Z,8.13
2022-08-26T16:56:22.670Z,6.93
2022-08-26T16:59:24.220Z,7.43
2022-08-26T17:02:25.624Z,7.65
2022-08-26T17:05:28.370Z,8.15
2022-08-26T17:08:30.300Z,7.40
2022-08-26T17:11:32.856Z,7.07
2022-08-26T17:14:34.408Z,7.70
2022-08-26T17:17:35.805Z,7.30
2022-08-26T17:20:37.146Z,7.72
2022-08-26T17:23:39.692Z,6.95
2022-08-26T17:26:44.169Z,6.70
2022-08-26T17:29:49.740Z,6.90
2022-08-26T17:32:51.532Z,6.15
2022-08-26T17:35:53.118Z,6.25
2022-08-26T17:38:54.457Z,7.45
2022-08-26T17:41:56.306Z,6.90
2022-08-26T17:44:57.752Z,6.55
2022-08-26T17:47:59.084Z,7.28
2022-08-26T17:51:01.046Z,6.25
2022-08-26T17:54:02.463Z,7.55
2022-08-26T17:57:03.850Z,5.70
2022-08-26T18:00:14.718Z,6.88
2022-08-26T18:03:16.822Z,7.07
2022-08-26T18:06:18.837Z,6.85
2022-08-26T18:09:20.874Z,5.85
2022-08-26T18:12:22.975Z,6.32
2022-08-26T18:15:29.109Z,5.63
2022-08-26T18:18:31.796Z,6.03
2022-08-26T18:21:33.170Z,6.53
2022-08-26T18:24:34.794Z,6.93
2022-08-26T18:27:36.609Z,6.03
2022-08-26T18:30:38.082Z,6.75
2022-08-26T18:33:39.449Z,7.85
2022-08-26T18:36:41.593Z,6.82
2022-08-26T18:39:43.848Z,7.18
2022-08-26T18:42:45.492Z,7.85
2022-08-26T18:46:00.337Z,7.45
2022-08-26T18:49:01.714Z,7.70
2022-08-26T18:52:03.404Z,7.95
2022-08-26T18:55:04.947Z,7.30
2022-08-26T18:58:06.328Z,7.55
2022-08-26T19:01:07.905Z,6.32
2022-08-26T19:04:15.362Z,7.72
2022-08-26T19:07:17.445Z,7.65
2022-08-26T19:10:18.804Z,7.70
2022-08-26T19:13:21.146Z,7.88
2022-08-26T19:16:23.746Z,7.63
2022-08-26T19:19:25.156Z,7.95
2022-08-26T19:22:26.450Z,7.70
2022-08-26T19:25:27.786Z,8.20
2022-08-26T19:28:29.135Z,7.57
2022-08-26T19:31:31.173Z,7.57
2022-08-26T19:34:36.245Z,7.75
2022-08-26T19:37:38.201Z,8.13
2022-08-26T19:40:39.633Z,7.60
2022-08-26T19:43:40.942Z,7.75
2022-08-26T19:46:42.417Z,8.32
2022-08-26T19:49:43.878Z,8.50
2022-08-26T19:52:45.723Z,7.53
2022-08-26T19:55:47.129Z,8.18
2022-08-26T19:58:48.634Z,8.07
2022-08-26T20:02:01.254Z,9.48
2022-08-26T20:05:04.961Z,9.50
2022-08-26T20:08:06.262Z,8.32
2022-08-26T20:11:09.379Z,8.15
2022-08-26T20:14:10.697Z,8.48
2022-08-26T20:17:12.656Z,8.02
2022-08-26T20:20:33.941Z,8.52
2022-08-26T20:23:36.389Z,8.05
2022-08-26T20:26:38.676Z,7.63
2022-08-26T20:29:40.820Z,8.00
2022-08-26T20:32:42.459Z,8.27
2022-08-26T20:35:43.760Z,8.68
2022-08-26T20:38:45.882Z,8.35
2022-08-26T20:41:47.749Z,8.32
2022-08-26T20:44:54.898Z,7.97
2022-08-26T20:47:56.392Z,8.45
2022-08-26T20:50:59.201Z,8.23
2022-08-26T20:54:01.397Z,7.90
2022-08-26T20:57:02.711Z,7.72
2022-08-26T21:00:05.317Z,7.47
2022-08-26T21:03:07.158Z,7.40
2022-08-26T21:06:09.036Z,7.85
2022-08-26T21:09:11.825Z,8.07
2022-08-26T21:12:13.126Z,8.77
2022-08-26T21:15:14.415Z,7.35
2022-08-26T21:18:15.749Z,7.25
2022-08-26T21:21:17.072Z,7.20
2022-08-26T21:24:19.239Z,7.28
2022-08-26T21:27:24.444Z,7.28
2022-08-26T21:30:28.120Z,7.20
2022-08-26T21:33:29.440Z,8.38
2022-08-26T21:36:31.495Z,8.60
2022-08-26T21:39:32.782Z,9.30
2022-08-26T21:42:34.506Z,9.13
2022-08-26T21:45:42.124Z,9.07
2022-08-26T21:48:47.688Z,9.07
2022-08-26T21:51:51.926Z,8.43
2022-08-26T21:54:57.445Z,9.60
2022-08-26T21:57:58.745Z,9.50
2022-08-26T22:01:00.215Z,9.10
2022-08-26T22:04:05.678Z,9.25
2022-08-26T22:07:07.198Z,8.90
2022-08-26T22:10:08.565Z,8.75
2022-08-26T22:13:09.897Z,8.05
2022-08-26T22:16:11.783Z,8.32
2022-08-26T22:19:16.998Z,8.15
2022-08-26T22:22:18.734Z,7.88
2022-08-26T22:25:20.014Z,7.68
2022-08-26T22:28:21.734Z,8.02
2022-08-26T22:31:23.158Z,7.63
2022-08-26T22:34:29.553Z,8.02
2022-08-26T22:37:30.893Z,7.90
2022-08-26T22:40:32.859Z,8.40
2022-08-26T22:43:34.174Z,7.95
2022-08-26T22:46:36.625Z,8.10
2022-08-26T22:49:37.922Z,7.38
2022-08-26T22:52:39.209Z,7.78
2022-08-26T22:55:40.502Z,7.82
2022-08-26T22:58:42.126Z,7.35
2022-08-26T23:01:44.029Z,7.57
2022-08-26T23:04:45.357Z,7.28
2022-08-26T23:07:46.653Z,7.10
2022-08-26T23:10:48.409Z,7.85
2022-08-26T23:13:49.694Z,6.68
2022-08-26T23:16:51.445Z,6.32
2022-08-26T23:19:52.732Z,7.03
2022-08-26T23:22:54.474Z,6.75
2022-08-26T23:25:55.776Z,6.88
2022-08-26T23:28:57.276Z,6.50
2022-08-26T23:31:58.646Z,6.50
2022-08-26T23:35:00.012Z,6.68
2022-08-26T23:38:01.665Z,6.32
2022-08-26T23:41:02.983Z,6.35
2022-08-26T23:44:05.229Z,6.32
2022-08-26T23:47:07.070Z,6.30
2022-08-26T23:50:08.857Z,6.13
2022-08-26T23:53:10.605Z,6.28
2022-08-26T23:56:13.852Z,6.25
2022-08-26T23:59:15.556Z,6.55
